Time;durP1;ratioP1;P1;durP2;ratioP2;P2;SDS_P1;SDS_P2;PMS_P1;PMS_P2;Temp;Humidity;BMP_temperature;BMP_pressure;BME280_temperature;BME280_humidity;BME280_pressure;Samples;Min_cycle;Max_cycle;Signal;HPM_P1;HPM_P2
2023/10/14 00:01:36;;;;;;;11.43;1.58;;;13.30;99.90;;;;;;5084345;28;20043;-59
2023/10/14 00:04:08;;;;;;;11.77;2.47;;;13.20;99.90;;;;;;5102892;28;20139;-60
2023/10/14 00:06:38;;;;;;;11.77;2.85;;;13.20;99.90;;;;;;5093397;28;20387;-58
2023/10/14 00:09:22;;;;;;;14.77;2.10;;;13.20;99.90;;;;;;5101456;28;20125;-59
2023/10/14 00:11:54;;;;;;;;;;;13.10;99.90;;;;;;5095950;28;20440;-60
2023/10/14 00:14:21;;;;;;;14.38;2.28;;;13.10;99.90;;;;;;5098553;28;20318;-59
2023/10/14 00:16:50;;;;;;;10.23;2.22;;;13.00;99.90;;;;;;5082445;28;20040;-58
2023/10/14 00:19:20;;;;;;;12.07;2.85;;;13.00;99.90;;;;;;5095724;28;20040;-59
2023/10/14 00:21:48;;;;;;;17.25;2.47;;;12.90;99.90;;;;;;5094471;28;20066;-60
2023/10/14 00:24:28;;;;;;;11.77;2.20;;;12.80;99.90;;;;;;5098917;28;20125;-59
2023/10/14 00:26:54;;;;;;;16.52;2.50;;;12.80;99.90;;;;;;5097786;28;20039;-58
2023/10/14 00:29:20;;;;;;;14.90;2.58;;;12.70;99.90;;;;;;5102517;28;20032;-58
2023/10/14 00:31:50;;;;;;;10.65;2.38;;;12.70;99.90;;;;;;5080550;28;20289;-59
2023/10/14 00:34:18;;;;;;;16.23;3.20;;;12.60;99.90;;;;;;5092447;28;20051;-58
2023/10/14 00:36:44;;;;;;;10.63;1.98;;;12.60;99.90;;;;;;5084994;27;20391;-59
2023/10/14 00:39:14;;;;;;;15.50;3.17;;;12.50;99.90;;;;;;5080088;28;20158;-59
2023/10/14 00:41:42;;;;;;;15.65;2.95;;;12.50;99.90;;;;;;5099540;28;20047;-59
2023/10/14 00:44:11;;;;;;;11.65;2.22;;;12.50;99.90;;;;;;5098396;28;20534;-60
2023/10/14 00:46:48;;;;;;;16.10;2.53;;;12.40;99.90;;;;;;5096479;28;20490;-58
2023/10/14 00:49:15;;;;;;;10.57;1.95;;;12.50;99.90;;;;;;5094335;28;20044;-59
2023/10/14 00:51:42;;;;;;;12.52;2.13;;;12.40;99.90;;;;;;5091273;28;20487;-59
2023/10/14 00:54:13;;;;;;;9.32;2.90;;;12.40;99.90;;;;;;5101921;27;20039;-59
2023/10/14 00:56:47;;;;;;;8.38;1.77;;;12.40;99.90;;;;;;5093609;28;20048;-58
2023/10/14 00:59:14;;;;;;;11.70;2.03;;;12.40;99.90;;;;;;5092435;28;20223;-59
2023/10/14 01:01:55;;;;;;;10.85;2.55;;;12.30;99.90;;;;;;5075453;28;20076;-57
2023/10/14 01:04:31;;;;;;;12.00;1.70;;;12.30;99.90;;;;;;5108519;27;20330;-59
2023/10/14 01:10:04;;;;;;;10.68;2.05;;;12.30;99.90;;;;;;5091513;28;20368;-58
2023/10/14 01:12:26;;;;;;;10.88;2.75;;;12.30;99.90;;;;;;5086940;28;20063;-58
2023/10/14 01:14:53;;;;;;;9.98;1.98;;;12.40;99.90;;;;;;5097238;28;20479;-57
2023/10/14 01:17:42;;;;;;;16.25;1.77;;;12.40;99.90;;;;;;5093580;28;20043;-59
2023/10/14 01:22:57;;;;;;;10.82;1.70;;;12.40;99.90;;;;;;5081145;28;20039;-60
2023/10/14 01:25:28;;;;;;;11.45;2.22;;;12.40;99.90;;;;;;5092719;28;20112;-61
2023/10/14 01:27:58;;;;;;;11.82;2.72;;;12.40;99.90;;;;;;5079250;27;20719;-61
2023/10/14 01:30:26;;;;;;;7.65;2.20;;;12.40;99.90;;;;;;5093589;27;20043;-61
2023/10/14 01:32:57;;;;;;;11.80;2.13;;;12.40;99.90;;;;;;5085544;28;20043;-61
2023/10/14 01:35:24;;;;;;;11.55;2.13;;;12.30;99.90;;;;;;5114652;27;20044;-59
2023/10/14 01:37:54;;;;;;;11.32;2.15;;;12.30;99.90;;;;;;5094067;28;20050;-61
2023/10/14 01:40:27;;;;;;;16.92;2.10;;;12.30;99.90;;;;;;5095894;28;20040;-61
2023/10/14 01:42:57;;;;;;;9.05;2.38;;;12.30;99.90;;;;;;5093043;28;20118;-61
2023/10/14 01:45:31;;;;;;;11.30;2.20;;;12.30;99.90;;;;;;5095036;27;20036;-61
2023/10/14 01:48:21;;;;;;;11.82;3.17;;;12.30;99.90;;;;;;5097132;28;20039;-60
2023/10/14 01:50:52;;;;;;;9.50;2.28;;;12.40;99.90;;;;;;5091727;28;20051;-60
2023/10/14 01:53:18;;;;;;;12.35;2.45;;;12.40;99.90;;;;;;5095850;27;20047;-61
2023/10/14 01:55:45;;;;;;;16.63;2.88;;;12.40;99.90;;;;;;5098635;27;20039;-61
2023/10/14 01:58:29;;;;;;;11.73;1.88;;;12.30;99.90;;;;;;5078636;28;20069;-61
2023/10/14 02:03:41;;;;;;;12.23;2.20;;;12.30;99.90;;;;;;5094819;28;20079;-61
2023/10/14 02:06:16;;;;;;;13.50;3.22;;;12.30;99.90;;;;;;5094293;28;20490;-60
2023/10/14 02:08:42;;;;;;;10.63;1.88;;;12.30;99.90;;;;;;5096095;28;20075;-60
2023/10/14 02:11:08;;;;;;;10.18;2.10;;;12.40;99.90;;;;;;5101248;28;20036;-61
2023/10/14 02:13:36;;;;;;;12.02;2.10;;;12.40;99.90;;;;;;5104208;28;20054;-60
2023/10/14 02:16:08;;;;;;;12.45;2.13;;;12.40;99.90;;;;;;5095527;28;20402;-60
2023/10/14 02:18:38;;;;;;;7.15;1.83;;;12.40;99.90;;;;;;5094968;28;20047;-61
2023/10/14 02:21:06;;;;;;;8.35;1.70;;;12.40;99.90;;;;;;5092127;28;20118;-61
2023/10/14 02:23:45;;;;;;;12.55;2.38;;;12.40;99.90;;;;;;5097915;28;20063;-60
2023/10/14 02:26:15;;;;;;;10.88;2.80;;;12.30;99.90;;;;;;5078493;28;20387;-61
2023/10/14 02:28:48;;;;;;;11.35;1.98;;;12.30;99.90;;;;;;5097434;28;20044;-61
2023/10/14 02:31:17;;;;;;;15.27;2.50;;;12.30;99.90;;;;;;5099625;28;20048;-60
2023/10/14 02:33:47;;;;;;;13.63;2.63;;;12.30;99.90;;;;;;5081097;28;20032;-61
2023/10/14 02:36:16;;;;;;;11.55;2.42;;;12.30;99.90;;;;;;5100723;28;20047;-61
2023/10/14 02:38:44;;;;;;;14.25;2.70;;;12.30;99.90;;;;;;5094952;28;20093;-61
2023/10/14 02:41:10;;;;;;;12.65;2.13;;;12.30;99.90;;;;;;5098860;28;20071;-61
2023/10/14 02:43:39;;;;;;;13.07;2.42;;;12.30;99.90;;;;;;5095235;28;20075;-61
2023/10/14 02:46:04;;;;;;;8.48;1.60;;;12.30;99.90;;;;;;5096617;28;20055;-61
2023/10/14 02:48:52;;;;;;;8.60;2.15;;;12.30;99.90;;;;;;5092939;28;20313;-61
2023/10/14 02:51:16;;;;;;;10.60;1.75;;;12.30;99.90;;;;;;5097045;28;20052;-61
2023/10/14 02:53:44;;;;;;;14.48;2.45;;;12.30;99.90;;;;;;5101719;28;20055;-62
2023/10/14 02:56:20;;;;;;;10.15;2.00;;;12.30;99.90;;;;;;5095760;28;20040;-61
2023/10/14 02:58:46;;;;;;;10.98;2.80;;;12.30;99.90;;;;;;5079044;28;20117;-61
2023/10/14 03:01:12;;;;;;;12.23;2.38;;;12.30;99.90;;;;;;5098328;28;20067;-62
2023/10/14 03:03:42;;;;;;;12.35;2.38;;;12.20;99.90;;;;;;5084936;28;20035;-61
2023/10/14 03:06:14;;;;;;;12.63;2.20;;;12.20;99.90;;;;;;5081744;28;20043;-61
2023/10/14 03:08:46;;;;;;;13.38;2.97;;;12.20;99.90;;;;;;5103151;28;20122;-61
2023/10/14 03:11:19;;;;;;;11.98;2.35;;;12.20;99.90;;;;;;5100113;27;20052;-60
2023/10/14 03:13:45;;;;;;;10.35;2.30;;;12.20;99.90;;;;;;5094377;27;20051;-61
2023/10/14 03:16:17;;;;;;;9.27;2.85;;;12.20;99.90;;;;;;5094759;28;20298;-61
2023/10/14 03:18:44;;;;;;;11.20;2.05;;;12.20;99.90;;;;;;5096236;28;20148;-60
2023/10/14 03:21:22;;;;;;;9.90;2.10;;;12.20;99.90;;;;;;5099733;28;20035;-61
2023/10/14 03:23:47;;;;;;;14.10;2.40;;;12.20;99.90;;;;;;5101897;28;20051;-61
2023/10/14 03:26:13;;;;;;;7.93;1.60;;;12.10;99.90;;;;;;5097218;28;20051;-61
2023/10/14 03:28:44;;;;;;;10.13;2.45;;;12.00;99.90;;;;;;5086707;28;20047;-61
2023/10/14 03:31:14;;;;;;;11.68;2.80;;;12.00;99.90;;;;;;5095196;28;20052;-61
2023/10/14 03:33:43;;;;;;;15.30;2.65;;;11.90;99.90;;;;;;5095263;28;20046;-61
2023/10/14 03:36:17;;;;;;;13.68;3.33;;;11.90;99.90;;;;;;5094713;27;20383;-61
2023/10/14 03:38:55;;;;;;;12.05;2.17;;;11.90;99.90;;;;;;5098864;28;20395;-61
2023/10/14 03:41:21;;;;;;;14.95;2.88;;;11.80;99.90;;;;;;5100272;27;20497;-61
2023/10/14 03:46:24;;;;;;;11.27;1.95;;;11.80;99.90;;;;;;5093878;28;20048;-60
2023/10/14 03:48:54;;;;;;;11.35;2.13;;;11.70;99.90;;;;;;5100218;28;20044;-60
2023/10/14 03:51:27;;;;;;;9.13;1.90;;;11.70;99.90;;;;;;5099328;28;20085;-61
2023/10/14 03:53:54;;;;;;;8.52;1.83;;;11.70;99.90;;;;;;5098837;28;20122;-60
2023/10/14 03:56:28;;;;;;;14.85;1.85;;;11.70;99.90;;;;;;5097501;28;20032;-60
2023/10/14 03:58:55;;;;;;;11.60;2.40;;;11.70;99.90;;;;;;5094750;28;20529;-59
2023/10/14 04:01:30;;;;;;;11.30;2.20;;;11.70;99.90;;;;;;5096097;28;20544;-59
2023/10/14 04:03:56;;;;;;;19.42;2.67;;;11.70;99.90;;;;;;5095983;28;20040;-60
2023/10/14 04:06:23;;;;;;;12.40;1.90;;;11.60;99.90;;;;;;5099023;28;20098;-61
2023/10/14 04:08:49;;;;;;;12.18;2.00;;;11.70;99.90;;;;;;5100942;27;20046;-60
2023/10/14 04:11:25;;;;;;;10.63;2.47;;;11.70;99.90;;;;;;5097784;28;20047;-61
2023/10/14 04:17:00;;;;;;;17.70;2.03;;;11.80;99.90;;;;;;5080980;28;20127;-60
2023/10/14 04:19:44;;;;;;;12.38;2.33;;;11.80;99.90;;;;;;5097352;27;20047;-59
2023/10/14 04:24:53;;;;;;;15.38;2.50;;;11.80;99.90;;;;;;5083318;28;20039;-59
2023/10/14 04:30:12;;;;;;;17.23;2.85;;;11.80;99.90;;;;;;5097105;27;20086;-60
2023/10/14 04:35:32;;;;;;;17.92;3.10;;;11.80;99.90;;;;;;5056963;28;20052;-60
2023/10/14 04:38:02;;;;;;;13.93;2.78;;;11.90;99.90;;;;;;5092034;28;20051;-59
2023/10/14 04:43:18;;;;;;;17.75;2.70;;;11.90;99.90;;;;;;5094966;28;20044;-60
2023/10/14 04:45:52;;;;;;;13.25;2.65;;;11.90;99.90;;;;;;5095307;28;20039;-59
2023/10/14 04:48:26;;;;;;;12.93;1.70;;;11.90;99.90;;;;;;5094479;28;20171;-59
2023/10/14 04:50:57;;;;;;;;;;;11.80;99.90;;;;;;5095912;28;20051;-60
2023/10/14 04:53:31;;;;;;;13.18;3.15;;;11.80;99.90;;;;;;5097013;28;19938;-58
2023/10/14 04:56:01;;;;;;;;;;;11.80;99.90;;;;;;5091370;28;20496;-59
2023/10/14 04:58:27;;;;;;;10.65;2.22;;;11.70;99.90;;;;;;5094690;28;19916;-60
2023/10/14 05:00:57;;;;;;;13.75;2.10;;;11.80;99.90;;;;;;5101622;28;20397;-60
2023/10/14 05:03:22;;;;;;;11.65;2.70;;;11.70;99.90;;;;;;5102576;28;20035;-60
2023/10/14 05:05:51;;;;;;;13.48;2.45;;;11.60;99.90;;;;;;5089172;28;20400;-60
2023/10/14 05:08:24;;;;;;;11.23;2.30;;;11.60;99.90;;;;;;5074953;28;20039;-60
2023/10/14 05:10:51;;;;;;;9.35;2.08;;;11.60;99.90;;;;;;5081668;28;20052;-59
2023/10/14 05:13:19;;;;;;;10.50;1.80;;;11.50;99.90;;;;;;5095113;27;20104;-60
2023/10/14 05:16:14;;;;;;;14.35;2.53;;;11.50;99.90;;;;;;5092348;28;20048;-59
2023/10/14 05:18:35;;;;;;;10.23;2.10;;;11.50;99.90;;;;;;5092323;27;20036;-60
2023/10/14 05:21:12;;;;;;;10.85;2.55;;;11.50;99.90;;;;;;5102711;27;20047;-58
2023/10/14 05:23:41;;;;;;;14.43;2.63;;;11.40;99.90;;;;;;5101105;28;20505;-60
2023/10/14 05:26:07;;;;;;;13.02;2.65;;;11.40;99.90;;;;;;5096676;28;20044;-60
2023/10/14 05:28:36;;;;;;;15.35;2.63;;;11.40;99.90;;;;;;5101393;28;20043;-59
2023/10/14 05:31:08;;;;;;;11.00;2.15;;;11.40;99.90;;;;;;5094307;28;20048;-57
2023/10/14 05:33:37;;;;;;;15.57;2.35;;;11.40;99.90;;;;;;5094065;28;20047;-59
2023/10/14 05:36:05;;;;;;;13.23;2.47;;;11.40;99.90;;;;;;5099834;28;20070;-58
2023/10/14 05:38:31;;;;;;;15.55;2.13;;;11.30;99.90;;;;;;5099785;28;20122;-58
2023/10/14 05:41:00;;;;;;;14.85;2.85;;;11.40;99.90;;;;;;5098059;28;20471;-59
2023/10/14 05:43:26;;;;;;;12.18;2.38;;;11.40;99.90;;;;;;5097265;28;20048;-57
2023/10/14 05:45:53;;;;;;;16.15;3.20;;;11.40;99.90;;;;;;5093888;28;20050;-59
2023/10/14 05:48:26;;;;;;;11.13;2.17;;;11.30;99.90;;;;;;5096351;28;20071;-58
2023/10/14 05:50:54;;;;;;;13.43;2.80;;;11.40;99.90;;;;;;5099429;28;20052;-58
2023/10/14 05:53:20;;;;;;;16.42;2.83;;;11.40;99.90;;;;;;5099605;28;20458;-59
2023/10/14 05:55:47;;;;;;;12.70;2.15;;;11.40;99.90;;;;;;5096674;28;20050;-59
2023/10/14 05:58:13;;;;;;;12.88;2.22;;;11.40;99.90;;;;;;5097165;28;20044;-59
2023/10/14 06:00:41;;;;;;;9.48;2.15;;;11.30;99.90;;;;;;5081828;28;20044;-57
2023/10/14 06:03:11;;;;;;;14.95;2.17;;;11.30;99.90;;;;;;5103279;28;20514;-59
2023/10/14 06:05:37;;;;;;;13.70;2.63;;;11.30;99.90;;;;;;5077787;28;20044;-59
2023/10/14 06:08:06;;;;;;;16.70;2.53;;;11.30;99.90;;;;;;5098963;28;20042;-58
2023/10/14 06:10:41;;;;;;;17.50;3.13;;;11.30;99.90;;;;;;5077881;28;20487;-55
2023/10/14 06:13:09;;;;;;;16.02;2.60;;;11.30;99.90;;;;;;5099168;28;20048;-58
2023/10/14 06:15:42;;;;;;;13.15;2.30;;;11.40;99.90;;;;;;5094178;28;20060;-57
2023/10/14 06:18:08;;;;;;;14.35;2.90;;;11.40;99.90;;;;;;5098765;28;20182;-59
2023/10/14 06:20:34;;;;;;;15.65;2.78;;;11.50;99.90;;;;;;5081550;28;20126;-59
2023/10/14 06:23:00;;;;;;;15.82;2.65;;;11.50;99.90;;;;;;5108459;27;20055;-59
2023/10/14 06:25:29;;;;;;;15.10;2.63;;;11.60;99.90;;;;;;5096275;28;20188;-59
2023/10/14 06:27:55;;;;;;;14.90;2.58;;;11.60;99.90;;;;;;5104033;28;20071;-60
2023/10/14 06:30:21;;;;;;;15.02;2.72;;;11.60;99.90;;;;;;5107211;27;20044;-60
2023/10/14 06:32:48;;;;;;;12.23;2.80;;;11.60;99.90;;;;;;5103259;27;20583;-59
2023/10/14 06:35:15;;;;;;;15.25;2.17;;;11.60;99.90;;;;;;5104221;28;20044;-60
2023/10/14 06:37:45;;;;;;;13.68;2.55;;;11.60;99.90;;;;;;5080384;28;20510;-60
2023/10/14 06:40:13;;;;;;;16.77;3.55;;;11.60;99.90;;;;;;5096854;27;20399;-60
2023/10/14 06:42:44;;;;;;;15.45;2.70;;;11.60;99.90;;;;;;5101007;28;20054;-60
2023/10/14 06:45:13;;;;;;;12.65;2.55;;;11.60;99.90;;;;;;5073019;28;20055;-59
2023/10/14 06:47:45;;;;;;;11.25;2.03;;;11.60;99.90;;;;;;5098057;27;20480;-60
2023/10/14 06:50:12;;;;;;;18.08;3.50;;;11.70;99.90;;;;;;5085438;28;20039;-60
2023/10/14 06:52:38;;;;;;;14.77;2.88;;;11.80;99.90;;;;;;5084147;28;20044;-59
2023/10/14 06:55:07;;;;;;;17.75;2.40;;;11.80;99.90;;;;;;5098760;28;20075;-60
2023/10/14 06:57:40;;;;;;;11.82;2.55;;;11.90;99.90;;;;;;5106231;27;20043;-60
2023/10/14 07:00:12;;;;;;;10.48;2.30;;;12.00;99.90;;;;;;5100508;28;20555;-59
2023/10/14 07:02:38;;;;;;;9.73;2.08;;;12.00;99.90;;;;;;5103345;28;20047;-60
2023/10/14 07:05:05;;;;;;;14.32;2.85;;;12.00;99.90;;;;;;5102287;27;20482;-59
2023/10/14 07:07:32;;;;;;;14.70;2.53;;;11.90;99.90;;;;;;5102364;27;20035;-59
2023/10/14 07:09:59;;;;;;;13.85;2.22;;;12.00;99.90;;;;;;5096636;28;20085;-58
2023/10/14 07:12:25;;;;;;;15.75;2.38;;;12.00;99.90;;;;;;5094117;28;20077;-58
2023/10/14 07:14:53;;;;;;;15.70;3.00;;;12.10;99.90;;;;;;5103577;28;20210;-58
2023/10/14 07:17:22;;;;;;;15.27;2.22;;;12.20;99.90;;;;;;5099334;27;20123;-58
2023/10/14 07:19:48;;;;;;;10.10;2.15;;;12.20;99.90;;;;;;5100376;27;20394;-59
2023/10/14 07:22:20;;;;;;;11.70;2.42;;;12.30;99.90;;;;;;5096030;28;20043;-59
2023/10/14 07:24:47;;;;;;;15.00;2.85;;;12.30;99.90;;;;;;5097892;28;20158;-58
2023/10/14 07:27:17;;;;;;;13.07;2.00;;;12.30;99.90;;;;;;5100401;28;20477;-59
2023/10/14 07:29:45;;;;;;;14.50;2.42;;;12.40;99.90;;;;;;5100810;28;20036;-59
2023/10/14 07:32:15;;;;;;;12.02;2.00;;;12.30;99.90;;;;;;5101171;28;20050;-60
2023/10/14 07:34:42;;;;;;;14.82;2.15;;;12.40;99.90;;;;;;5087217;28;20517;-59
2023/10/14 07:37:09;;;;;;;12.38;2.55;;;12.50;99.90;;;;;;5085796;28;20055;-60
2023/10/14 07:39:36;;;;;;;11.52;2.65;;;12.60;99.90;;;;;;5099670;28;20028;-60
2023/10/14 07:42:09;;;;;;;13.00;2.47;;;12.70;99.90;;;;;;5104435;28;20036;-60
2023/10/14 07:44:35;;;;;;;12.40;1.98;;;12.80;99.90;;;;;;5092240;28;20052;-60
2023/10/14 07:47:05;;;;;;;9.48;2.58;;;12.80;99.90;;;;;;5106432;28;20398;-60
2023/10/14 07:49:32;;;;;;;8.63;2.15;;;12.90;99.90;;;;;;5096855;28;20044;-60
2023/10/14 07:52:00;;;;;;;10.13;1.90;;;13.00;99.90;;;;;;5103326;28;20079;-60
2023/10/14 07:54:30;;;;;;;13.73;2.42;;;13.10;99.90;;;;;;5098764;28;20570;-59
2023/10/14 07:56:55;;;;;;;7.78;2.20;;;13.10;99.90;;;;;;5082586;28;20051;-59
2023/10/14 07:59:21;;;;;;;11.38;2.60;;;13.20;99.90;;;;;;5083510;28;20047;-60
2023/10/14 08:01:47;;;;;;;9.02;2.08;;;13.30;99.90;;;;;;5095245;28;20410;-60
2023/10/14 08:04:15;;;;;;;9.93;2.05;;;13.30;99.90;;;;;;5101274;28;20518;-60
2023/10/14 08:06:43;;;;;;;13.20;2.13;;;13.40;99.90;;;;;;5080801;28;20494;-60
2023/10/14 08:09:24;;;;;;;8.02;2.17;;;13.40;99.90;;;;;;5101353;28;20438;-60
2023/10/14 08:11:50;;;;;;;13.35;1.98;;;13.40;99.90;;;;;;5099938;28;20232;-60
2023/10/14 08:14:16;;;;;;;11.90;2.00;;;13.40;99.90;;;;;;5075371;28;20044;-60
2023/10/14 08:16:42;;;;;;;10.73;1.95;;;13.50;99.90;;;;;;5092004;27;20551;-60
2023/10/14 08:19:10;;;;;;;12.02;2.50;;;13.50;99.90;;;;;;5094743;27;20079;-60
2023/10/14 08:21:36;;;;;;;7.82;1.80;;;13.60;99.90;;;;;;5097272;28;20450;-59
2023/10/14 08:24:05;;;;;;;10.68;2.08;;;13.70;99.90;;;;;;5095419;28;20044;-59
2023/10/14 08:26:34;;;;;;;9.18;2.15;;;13.70;99.90;;;;;;5098181;28;20073;-60
2023/10/14 08:29:01;;;;;;;10.80;1.95;;;13.70;99.90;;;;;;5076670;28;20524;-60
2023/10/14 08:31:27;;;;;;;8.18;1.80;;;13.50;99.90;;;;;;5076763;28;20148;-60
2023/10/14 08:33:53;;;;;;;14.13;2.33;;;13.50;99.90;;;;;;5077341;28;20052;-58
2023/10/14 08:36:19;;;;;;;9.27;2.00;;;13.50;99.90;;;;;;5092167;28;20051;-58
2023/10/14 08:38:47;;;;;;;15.07;2.15;;;13.40;99.90;;;;;;5076859;28;20128;-60
2023/10/14 08:41:16;;;;;;;8.75;2.00;;;13.60;99.90;;;;;;5094292;28;20135;-60
2023/10/14 08:43:49;;;;;;;11.73;2.40;;;13.70;99.90;;;;;;5099189;28;20471;-60
2023/10/14 08:46:17;;;;;;;20.40;2.57;;;13.70;99.90;;;;;;5102350;28;20085;-60
2023/10/14 08:48:46;;;;;;;13.52;2.20;;;13.90;99.90;;;;;;5098755;27;20220;-59
2023/10/14 08:51:14;;;;;;;16.30;3.78;;;13.90;99.90;;;;;;5081863;28;20070;-60
2023/10/14 08:53:42;;;;;;;11.73;2.60;;;13.90;99.90;;;;;;5087932;28;20436;-58
2023/10/14 08:56:08;;;;;;;10.63;2.15;;;13.90;99.90;;;;;;5099416;27;20065;-60
2023/10/14 08:58:38;;;;;;;12.65;2.10;;;14.00;99.90;;;;;;5094139;28;20471;-57
2023/10/14 09:01:11;;;;;;;11.48;2.00;;;13.90;99.90;;;;;;5102269;28;20044;-59
2023/10/14 09:03:38;;;;;;;12.32;2.60;;;14.00;99.90;;;;;;5098383;28;20085;-57
2023/10/14 09:06:06;;;;;;;13.90;2.70;;;14.00;99.90;;;;;;5097452;28;20047;-60
2023/10/14 09:08:33;;;;;;;13.43;2.17;;;14.20;99.90;;;;;;5077979;28;20046;-60
2023/10/14 09:10:59;;;;;;;14.50;2.60;;;14.20;99.90;;;;;;5101399;28;20075;-60
2023/10/14 09:13:25;;;;;;;13.60;2.25;;;14.20;99.90;;;;;;5096698;28;20076;-60
2023/10/14 09:15:51;;;;;;;12.43;2.40;;;14.30;99.90;;;;;;5100260;27;20476;-60
2023/10/14 09:18:22;;;;;;;7.72;1.77;;;14.30;99.90;;;;;;5096858;28;20418;-60
2023/10/14 09:20:55;;;;;;;11.90;2.70;;;14.40;99.90;;;;;;5090589;27;20506;-60
2023/10/14 09:23:29;;;;;;;11.88;2.65;;;14.40;99.90;;;;;;5079258;28;20024;-60
2023/10/14 09:26:04;;;;;;;;;;;14.40;99.90;;;;;;5100041;28;20680;-60
2023/10/14 09:28:35;;;;;;;13.45;2.30;;;14.50;99.90;;;;;;5092758;28;19915;-59
2023/10/14 09:31:05;;;;;;;10.57;2.55;;;14.70;99.90;;;;;;5101439;28;20031;-60
2023/10/14 09:33:37;;;;;;;12.07;2.72;;;14.80;99.90;;;;;;5094095;28;20339;-59
2023/10/14 09:36:11;;;;;;;8.57;1.77;;;14.60;99.90;;;;;;5082168;28;20048;-59
2023/10/14 09:38:38;;;;;;;5.13;1.15;;;14.00;99.90;;;;;;5099182;28;20050;-59
2023/10/14 09:41:05;;;;;;;6.75;1.30;;;13.30;99.90;;;;;;5118828;27;20046;-59
2023/10/14 09:43:32;;;;;;;3.28;0.85;;;12.70;99.90;;;;;;5101738;28;20032;-59
2023/10/14 09:46:00;;;;;;;5.20;0.90;;;12.40;99.90;;;;;;5100118;28;20123;-59
2023/10/14 09:48:27;;;;;;;7.50;1.15;;;12.30;99.90;;;;;;5098472;28;20490;-60
2023/10/14 09:50:55;;;;;;;7.63;1.20;;;12.60;99.90;;;;;;5096754;28;20122;-59
2023/10/14 09:53:27;;;;;;;5.18;1.20;;;12.90;99.90;;;;;;5099662;28;20082;-58
2023/10/14 09:55:58;;;;;;;3.37;0.90;;;13.10;99.90;;;;;;5076905;28;20319;-59
2023/10/14 09:58:30;;;;;;;4.93;1.00;;;13.40;99.90;;;;;;5094817;28;20069;-60
2023/10/14 10:00:59;;;;;;;4.45;1.20;;;13.50;99.90;;;;;;5100546;28;20043;-60
2023/10/14 10:03:29;;;;;;;9.07;1.75;;;13.70;99.90;;;;;;5104623;28;20096;-60
2023/10/14 10:06:27;;;;;;;5.35;1.30;;;13.70;99.90;;;;;;5099219;28;20031;-60
2023/10/14 10:09:13;;;;;;;7.43;1.63;;;13.70;99.90;;;;;;5091117;28;20046;-59
2023/10/14 10:11:39;;;;;;;8.15;1.45;;;13.70;99.90;;;;;;5087558;28;20442;-59
2023/10/14 10:14:12;;;;;;;8.38;1.88;;;13.90;99.90;;;;;;5099918;28;20028;-57
2023/10/14 10:16:41;;;;;;;6.57;1.75;;;13.90;99.90;;;;;;5103105;28;20047;-60
2023/10/14 10:19:08;;;;;;;9.57;1.85;;;14.10;99.90;;;;;;5097941;28;20093;-59
2023/10/14 10:21:43;;;;;;;14.10;2.83;;;14.20;99.90;;;;;;5097195;28;20043;-59
2023/10/14 10:24:38;;;;;;;6.70;1.90;;;14.20;99.90;;;;;;5087897;28;20043;-59
2023/10/14 10:27:03;;;;;;;9.82;1.85;;;14.40;99.90;;;;;;5095826;28;20047;-57
2023/10/14 10:29:33;;;;;;;12.45;2.35;;;14.50;99.90;;;;;;5095325;28;20038;-60
2023/10/14 10:32:16;;;;;;;9.73;2.13;;;14.70;99.90;;;;;;5075617;28;20055;-59
2023/10/14 10:35:07;;;;;;;12.48;2.50;;;14.80;99.90;;;;;;5095402;28;20476;-60
2023/10/14 10:37:48;;;;;;;11.52;1.83;;;14.70;99.90;;;;;;5096141;28;20127;-59
2023/10/14 10:40:22;;;;;;;9.57;1.90;;;14.80;99.90;;;;;;5097277;28;20357;-59
2023/10/14 10:42:53;;;;;;;13.23;3.05;;;14.90;99.90;;;;;;5094496;28;20440;-59
2023/10/14 10:45:22;;;;;;;13.40;2.50;;;15.10;99.90;;;;;;5093305;28;20097;-59
2023/10/14 10:47:55;;;;;;;14.10;2.88;;;15.00;99.90;;;;;;5093473;28;20051;-60
2023/10/14 10:50:27;;;;;;;13.73;2.58;;;15.10;99.90;;;;;;5086880;28;20036;-60
2023/10/14 10:53:06;;;;;;;9.27;2.25;;;15.00;99.90;;;;;;5097347;28;20035;-60
2023/10/14 10:55:36;;;;;;;15.07;2.50;;;14.60;99.90;;;;;;5079511;28;20044;-60
2023/10/14 10:58:03;;;;;;;12.45;2.72;;;14.40;99.90;;;;;;5090215;28;20040;-60
2023/10/14 11:00:32;;;;;;;12.30;2.35;;;14.30;99.90;;;;;;5096008;28;20080;-60
2023/10/14 11:03:00;;;;;;;16.15;3.40;;;14.40;99.90;;;;;;5097458;28;20065;-59
2023/10/14 11:05:26;;;;;;;11.63;2.38;;;14.20;99.90;;;;;;5094039;28;20463;-59
2023/10/14 11:07:57;;;;;;;11.55;2.55;;;13.90;99.90;;;;;;5097087;28;20076;-60
2023/10/14 11:10:30;;;;;;;14.93;2.90;;;13.30;99.90;;;;;;5096430;28;20027;-59
2023/10/14 11:12:58;;;;;;;11.32;2.70;;;12.80;99.90;;;;;;5081627;28;20507;-60
2023/10/14 11:15:26;;;;;;;14.30;2.78;;;12.70;99.90;;;;;;5094911;28;20138;-59
2023/10/14 11:17:59;;;;;;;12.30;2.60;;;12.80;99.90;;;;;;5100023;28;20058;-59
2023/10/14 11:20:31;;;;;;;11.23;2.22;;;12.60;99.90;;;;;;5101831;28;20503;-60
2023/10/14 11:22:58;;;;;;;11.25;2.17;;;12.70;99.90;;;;;;5103659;28;20118;-58
2023/10/14 11:25:25;;;;;;;13.82;2.53;;;12.90;99.90;;;;;;5095931;28;20041;-60
2023/10/14 11:27:54;;;;;;;15.18;2.38;;;13.10;99.90;;;;;;5076657;28;20096;-60
2023/10/14 11:30:21;;;;;;;8.95;2.40;;;13.40;99.90;;;;;;5099065;28;20096;-60
2023/10/14 11:32:51;;;;;;;13.95;2.25;;;13.50;99.90;;;;;;5098102;28;20185;-60
2023/10/14 11:35:21;;;;;;;15.00;2.63;;;13.70;99.90;;;;;;5079511;28;20129;-60
2023/10/14 11:37:52;;;;;;;13.20;3.33;;;13.90;99.90;;;;;;5098878;28;20414;-61
2023/10/14 11:40:19;;;;;;;12.23;2.47;;;14.00;99.90;;;;;;5095297;28;20483;-60
2023/10/14 11:42:46;;;;;;;12.57;2.70;;;14.20;99.90;;;;;;5099674;28;20095;-59
2023/10/14 11:45:17;;;;;;;13.85;2.38;;;14.10;99.90;;;;;;5094877;27;20036;-61
2023/10/14 11:47:44;;;;;;;12.60;3.42;;;13.70;99.90;;;;;;5094372;27;20055;-59
2023/10/14 11:50:13;;;;;;;11.48;2.80;;;13.20;99.70;;;;;;5098051;28;20119;-59
2023/10/14 11:52:42;;;;;;;14.27;3.53;;;13.20;99.90;;;;;;5103761;27;20334;-59
2023/10/14 11:55:14;;;;;;;14.23;3.00;;;13.10;99.90;;;;;;5098730;28;20097;-60
2023/10/14 11:57:42;;;;;;;11.20;2.15;;;13.00;99.80;;;;;;5096763;28;20055;-60
2023/10/14 12:00:10;;;;;;;8.13;1.85;;;13.40;99.90;;;;;;5078308;28;20051;-59
2023/10/14 12:02:37;;;;;;;17.65;3.20;;;13.70;99.90;;;;;;5096221;28;20051;-59
2023/10/14 12:05:04;;;;;;;10.23;2.75;;;14.00;98.90;;;;;;5099404;28;20059;-60
2023/10/14 12:07:33;;;;;;;10.32;2.50;;;13.90;97.70;;;;;;5093363;28;20047;-58
2023/10/14 12:10:00;;;;;;;13.90;2.25;;;14.00;97.80;;;;;;5098669;28;20386;-60
2023/10/14 12:12:26;;;;;;;16.92;2.78;;;14.20;97.10;;;;;;5106224;27;20159;-60
2023/10/14 12:14:52;;;;;;;15.25;3.28;;;14.20;96.90;;;;;;5094097;28;20047;-61
2023/10/14 12:17:18;;;;;;;16.63;2.83;;;14.40;97.20;;;;;;5093853;28;20047;-60
2023/10/14 12:19:44;;;;;;;11.38;2.53;;;14.50;97.80;;;;;;5097543;27;20039;-60
2023/10/14 12:22:10;;;;;;;9.40;2.47;;;14.80;98.60;;;;;;5099118;28;20048;-60
2023/10/14 12:24:36;;;;;;;12.60;2.45;;;14.70;96.20;;;;;;5099479;27;20051;-60
2023/10/14 12:27:02;;;;;;;13.27;3.25;;;14.40;96.60;;;;;;5095382;28;20048;-60
2023/10/14 12:29:31;;;;;;;16.27;2.67;;;14.60;97.90;;;;;;5097723;28;20044;-60
2023/10/14 12:31:59;;;;;;;9.73;2.47;;;14.80;97.60;;;;;;5095703;28;20043;-59
2023/10/14 12:34:25;;;;;;;11.18;2.55;;;14.80;97.10;;;;;;5082828;28;20482;-58
2023/10/14 12:36:52;;;;;;;14.52;2.80;;;15.00;97.60;;;;;;5092714;28;20097;-61
2023/10/14 12:39:26;;;;;;;14.38;2.35;;;15.00;97.00;;;;;;5092705;28;20048;-62
2023/10/14 12:41:53;;;;;;;10.27;2.30;;;14.80;97.00;;;;;;5096345;28;20101;-59
2023/10/14 12:44:20;;;;;;;6.15;2.30;;;14.80;97.40;;;;;;5097192;28;20481;-57
2023/10/14 12:46:46;;;;;;;13.73;2.60;;;14.80;97.80;;;;;;5098791;28;20040;-58
2023/10/14 12:49:17;;;;;;;11.70;3.22;;;14.80;97.80;;;;;;5093176;28;20150;-57
2023/10/14 12:51:44;;;;;;;12.00;2.78;;;14.90;96.20;;;;;;5096446;28;20409;-58
2023/10/14 12:54:17;;;;;;;14.75;2.50;;;15.00;97.90;;;;;;5082913;28;20045;-56
2023/10/14 12:56:47;;;;;;;14.50;4.33;;;14.80;98.60;;;;;;5095370;28;20051;-57
2023/10/14 12:59:12;;;;;;;11.88;3.28;;;14.60;99.30;;;;;;5060182;28;20115;-58
2023/10/14 13:01:46;;;;;;;14.43;3.08;;;14.20;97.20;;;;;;5094322;28;20122;-60
2023/10/14 13:04:16;;;;;;;9.63;2.70;;;13.80;97.40;;;;;;5098425;28;20078;-60
2023/10/14 13:06:44;;;;;;;9.82;2.42;;;13.50;97.00;;;;;;5091935;28;20052;-60
2023/10/14 13:09:12;;;;;;;14.50;3.42;;;13.60;98.00;;;;;;5097026;28;20042;-61
2023/10/14 13:11:43;;;;;;;12.18;2.47;;;13.90;97.60;;;;;;5093457;27;20396;-57
2023/10/14 13:14:10;;;;;;;8.65;2.35;;;14.10;97.50;;;;;;5098652;27;20495;-61
2023/10/14 13:16:36;;;;;;;10.95;2.50;;;14.30;96.30;;;;;;5095208;28;20109;-60
2023/10/14 13:19:03;;;;;;;8.88;2.85;;;14.40;96.10;;;;;;5101694;28;20040;-57